SBOSBO LAS / KLAS
Speedbird OnlineSpeedbird Online LAS / KLAS

Harry Reid International
13:37 30.2°C

Location Las Vegas, United States
Latitude: 36.08010101
Longitude: -115.1520004
Local Time 13:37 on 20 Apr 2024
UTC -7 hours (America/Los_Angeles)
Currency £1 equals USD 1.24
METAR KLAS 201956Z VRB03KT 10SM CLR 29/M01 A2993 RMK AO2 SLP079 T02941011 $
TAF KLAS 201726Z 2018/2124 04005KT P6SM FEW120 FEW250 FM202000 10006KT P6SM FEW120 SCT250 FM210400 23007KT P6SM SKC FM211200 VRB05KT P6SM SKC FM211900 10006KT P6SM SKC
Weather As Of 20 Apr 2024 13:37
Description Clear sky
Wind 7 km/h from North (0°)
Cloud Cover 0%
Precipitation Rain: none, Snow: none
Sunrise 05:59
Sunset 19:18
NOTAM 54 active NOTAM
Rotations During the last 90 days there were
80 flights from LHR
12 flights from LGW
82 flights to LHR
12 flights to LGW
Lounges The Club at LAS , Terminal 3
Web Airport Website | Wikipedia
Codes IATA: LAS
ICAO: KLAS
Altitude 665 Meter / 2181 Feet
Distance 8,423 KM / 5,234 Miles
from London.
Runways
RunwayLength (m)Surface
01L2740Concrete
01R2978Asphalt
08L4424Asphalt
08R3208Asphalt
19L2978Asphalt
19R2740Concrete
26L3208Asphalt
26R4424Asphalt
Radio
TypeDescriptionFrequency
APPLAS VEGAS APP125.025
ATISATIS132.4
CLDCLNC DEL118
DEPLAS VEGAS DEP125.02
GNDGround121.1
TWRTower119.9
UNICUNICOM122.95
Live ATC



Support Speedbird Online

© 2017-2024 Speedbird Online